EGKK/LGW METAR and TAF weather

Enter ICAO airport designator
Station Type Date Time Source
EGKK METAR 2021/05/17 22:20 UTC NOAA

EGKK 172220Z 24006KT 9999 SCT035 09/08 Q1011


Station Type Date Time Source
EGKK Decoded METAR 2021/05/17 22:20 UTC NOAA

London / Gatwick Airport, United Kingdom (EGKK) 51-09N 000-11W 0M
May 17, 2021 - 06:20 PM EDT / 2021.05.17 2220 UTC
Wind: from the WSW (240 degrees) at 7 MPH (6 KT):0
Visibility: greater than 7 mile(s):0
Sky conditions: partly cloudy
Temperature: 48 F (9 C)
Dew Point: 46 F (8 C)
Relative Humidity: 93%
Pressure (altimeter): 29.85 in. Hg (1011 hPa)
ob: EGKK 172220Z 24006KT 9999 SCT035 09/08 Q1011
cycle: 22

Station Type Date Time Source
EGKK TAF 2021/05/17 18:12 UTC NOAA

TAF EGKK 171704Z 1718/1824 25005KT 9999 SCT035
TEMPO 1718/1724 6000 SHRA PROB30
TEMPO 1718/1720 3000 +TSRA PROB30
TEMPO 1803/1808 BKN005
TEMPO 1809/1824 6000 SHRA PROB30
TEMPO 1811/1818 3000 +TSRA

Example: see airport list